sensor_id;sensor_type;location;lat;lon;timestamp;P1;durP1;ratioP1;P2;durP2;ratioP2
57055;SDS011;42945;51.718;5.324;2022-12-07T00:01:27;20.63;;;10.55;;
57055;SDS011;42945;51.718;5.324;2022-12-07T00:03:55;19.17;;;9.77;;
57055;SDS011;42945;51.718;5.324;2022-12-07T00:06:31;20.17;;;8.68;;
57055;SDS011;42945;51.718;5.324;2022-12-07T00:08:58;18.98;;;8.48;;
57055;SDS011;42945;51.718;5.324;2022-12-07T00:11:24;16.95;;;8.70;;
57055;SDS011;42945;51.718;5.324;2022-12-07T00:13:54;19.13;;;8.45;;
57055;SDS011;42945;51.718;5.324;2022-12-07T00:16:24;22.55;;;9.50;;
57055;SDS011;42945;51.718;5.324;2022-12-07T00:18:51;19.02;;;8.82;;
57055;SDS011;42945;51.718;5.324;2022-12-07T00:21:17;18.98;;;8.98;;
57055;SDS011;42945;51.718;5.324;2022-12-07T00:23:45;21.75;;;8.23;;
57055;SDS011;42945;51.718;5.324;2022-12-07T00:26:33;18.23;;;9.02;;
57055;SDS011;42945;51.718;5.324;2022-12-07T00:29:00;19.27;;;8.73;;
57055;SDS011;42945;51.718;5.324;2022-12-07T00:31:29;23.90;;;8.75;;
57055;SDS011;42945;51.718;5.324;2022-12-07T00:33:58;21.60;;;9.27;;
57055;SDS011;42945;51.718;5.324;2022-12-07T00:36:24;21.02;;;8.00;;
57055;SDS011;42945;51.718;5.324;2022-12-07T00:38:50;24.63;;;9.52;;
57055;SDS011;42945;51.718;5.324;2022-12-07T00:41:17;23.08;;;9.25;;
57055;SDS011;42945;51.718;5.324;2022-12-07T00:43:44;25.77;;;9.52;;
57055;SDS011;42945;51.718;5.324;2022-12-07T00:46:11;22.55;;;8.63;;
57055;SDS011;42945;51.718;5.324;2022-12-07T00:48:37;20.33;;;8.93;;
57055;SDS011;42945;51.718;5.324;2022-12-07T00:51:05;23.08;;;9.57;;
57055;SDS011;42945;51.718;5.324;2022-12-07T00:53:35;21.90;;;9.50;;
57055;SDS011;42945;51.718;5.324;2022-12-07T00:56:07;23.15;;;9.60;;
57055;SDS011;42945;51.718;5.324;2022-12-07T00:58:34;18.52;;;9.00;;
57055;SDS011;42945;51.718;5.324;2022-12-07T01:01:00;24.80;;;9.02;;
57055;SDS011;42945;51.718;5.324;2022-12-07T01:03:27;23.55;;;9.32;;
57055;SDS011;42945;51.718;5.324;2022-12-07T01:05:54;21.48;;;9.52;;
57055;SDS011;42945;51.718;5.324;2022-12-07T01:08:21;22.88;;;9.45;;
57055;SDS011;42945;51.718;5.324;2022-12-07T01:10:47;24.30;;;9.93;;
57055;SDS011;42945;51.718;5.324;2022-12-07T01:13:13;21.67;;;8.55;;
57055;SDS011;42945;51.718;5.324;2022-12-07T01:15:40;17.02;;;7.78;;
57055;SDS011;42945;51.718;5.324;2022-12-07T01:18:06;18.80;;;8.00;;
57055;SDS011;42945;51.718;5.324;2022-12-07T01:20:32;16.17;;;6.75;;
57055;SDS011;42945;51.718;5.324;2022-12-07T01:22:57;22.55;;;6.72;;
57055;SDS011;42945;51.718;5.324;2022-12-07T01:25:23;17.92;;;6.25;;
57055;SDS011;42945;51.718;5.324;2022-12-07T01:27:48;22.42;;;6.38;;
57055;SDS011;42945;51.718;5.324;2022-12-07T01:30:13;19.50;;;6.60;;
57055;SDS011;42945;51.718;5.324;2022-12-07T01:32:39;15.35;;;5.53;;
57055;SDS011;42945;51.718;5.324;2022-12-07T01:35:04;13.75;;;5.97;;
57055;SDS011;42945;51.718;5.324;2022-12-07T01:37:33;17.73;;;5.88;;
57055;SDS011;42945;51.718;5.324;2022-12-07T01:40:06;21.27;;;7.13;;
57055;SDS011;42945;51.718;5.324;2022-12-07T01:42:33;17.88;;;6.90;;
57055;SDS011;42945;51.718;5.324;2022-12-07T01:47:46;15.43;;;6.47;;
57055;SDS011;42945;51.718;5.324;2022-12-07T01:52:40;15.18;;;5.85;;
57055;SDS011;42945;51.718;5.324;2022-12-07T01:55:08;14.30;;;5.55;;
57055;SDS011;42945;51.718;5.324;2022-12-07T01:57:38;14.65;;;5.93;;
57055;SDS011;42945;51.718;5.324;2022-12-07T02:00:07;20.33;;;6.55;;
57055;SDS011;42945;51.718;5.324;2022-12-07T02:02:38;15.82;;;6.47;;
57055;SDS011;42945;51.718;5.324;2022-12-07T02:05:12;18.92;;;6.32;;
57055;SDS011;42945;51.718;5.324;2022-12-07T02:07:38;15.38;;;5.75;;
57055;SDS011;42945;51.718;5.324;2022-12-07T02:12:38;16.13;;;5.72;;
57055;SDS011;42945;51.718;5.324;2022-12-07T02:15:04;16.50;;;5.53;;
57055;SDS011;42945;51.718;5.324;2022-12-07T02:17:39;14.35;;;5.40;;
57055;SDS011;42945;51.718;5.324;2022-12-07T02:20:32;18.00;;;5.70;;
57055;SDS011;42945;51.718;5.324;2022-12-07T02:31:34;12.23;;;5.35;;
57055;SDS011;42945;51.718;5.324;2022-12-07T02:34:12;17.02;;;5.88;;
57055;SDS011;42945;51.718;5.324;2022-12-07T02:36:46;8.88;;;4.97;;
57055;SDS011;42945;51.718;5.324;2022-12-07T02:39:33;13.57;;;5.22;;
57055;SDS011;42945;51.718;5.324;2022-12-07T02:45:16;15.00;;;5.20;;
57055;SDS011;42945;51.718;5.324;2022-12-07T02:47:47;15.68;;;5.28;;
57055;SDS011;42945;51.718;5.324;2022-12-07T02:50:17;15.20;;;6.18;;
57055;SDS011;42945;51.718;5.324;2022-12-07T02:52:44;16.65;;;5.90;;
57055;SDS011;42945;51.718;5.324;2022-12-07T02:55:12;13.30;;;5.60;;
57055;SDS011;42945;51.718;5.324;2022-12-07T03:00:45;14.10;;;5.95;;
57055;SDS011;42945;51.718;5.324;2022-12-07T03:03:23;13.57;;;5.20;;
57055;SDS011;42945;51.718;5.324;2022-12-07T03:08:44;18.60;;;5.53;;
57055;SDS011;42945;51.718;5.324;2022-12-07T03:11:19;12.50;;;5.30;;
57055;SDS011;42945;51.718;5.324;2022-12-07T03:13:50;15.13;;;4.72;;
57055;SDS011;42945;51.718;5.324;2022-12-07T03:16:20;14.90;;;4.10;;
57055;SDS011;42945;51.718;5.324;2022-12-07T03:18:50;15.77;;;4.28;;
57055;SDS011;42945;51.718;5.324;2022-12-07T03:21:25;12.95;;;3.85;;
57055;SDS011;42945;51.718;5.324;2022-12-07T03:23:56;16.13;;;3.88;;
57055;SDS011;42945;51.718;5.324;2022-12-07T03:26:29;14.60;;;3.75;;
57055;SDS011;42945;51.718;5.324;2022-12-07T03:28:59;14.45;;;3.60;;
57055;SDS011;42945;51.718;5.324;2022-12-07T03:31:35;12.57;;;3.28;;
57055;SDS011;42945;51.718;5.324;2022-12-07T03:36:44;13.85;;;2.95;;
57055;SDS011;42945;51.718;5.324;2022-12-07T03:39:36;16.60;;;3.05;;
57055;SDS011;42945;51.718;5.324;2022-12-07T03:42:14;11.48;;;2.60;;
57055;SDS011;42945;51.718;5.324;2022-12-07T03:44:40;10.88;;;2.60;;
57055;SDS011;42945;51.718;5.324;2022-12-07T03:47:19;11.65;;;2.70;;
57055;SDS011;42945;51.718;5.324;2022-12-07T03:49:59;8.18;;;2.53;;
57055;SDS011;42945;51.718;5.324;2022-12-07T03:52:39;11.80;;;2.67;;
57055;SDS011;42945;51.718;5.324;2022-12-07T03:55:35;12.25;;;2.65;;
57055;SDS011;42945;51.718;5.324;2022-12-07T03:58:05;9.43;;;2.55;;
57055;SDS011;42945;51.718;5.324;2022-12-07T04:00:34;9.75;;;2.80;;
57055;SDS011;42945;51.718;5.324;2022-12-07T04:03:00;13.75;;;3.10;;
57055;SDS011;42945;51.718;5.324;2022-12-07T04:05:25;8.90;;;2.67;;
57055;SDS011;42945;51.718;5.324;2022-12-07T04:07:51;13.68;;;2.97;;
57055;SDS011;42945;51.718;5.324;2022-12-07T04:10:17;6.35;;;2.65;;
57055;SDS011;42945;51.718;5.324;2022-12-07T04:12:42;13.35;;;2.72;;
57055;SDS011;42945;51.718;5.324;2022-12-07T04:15:08;7.53;;;2.50;;
57055;SDS011;42945;51.718;5.324;2022-12-07T04:17:34;11.63;;;2.30;;
57055;SDS011;42945;51.718;5.324;2022-12-07T04:19:59;14.27;;;2.40;;
57055;SDS011;42945;51.718;5.324;2022-12-07T04:22:25;6.72;;;1.80;;
57055;SDS011;42945;51.718;5.324;2022-12-07T04:24:50;10.63;;;1.92;;
57055;SDS011;42945;51.718;5.324;2022-12-07T04:27:16;7.05;;;1.58;;
57055;SDS011;42945;51.718;5.324;2022-12-07T04:29:41;8.90;;;2.10;;
57055;SDS011;42945;51.718;5.324;2022-12-07T04:32:07;6.28;;;1.60;;
57055;SDS011;42945;51.718;5.324;2022-12-07T04:34:32;7.88;;;1.50;;
57055;SDS011;42945;51.718;5.324;2022-12-07T04:36:58;8.88;;;1.13;;
57055;SDS011;42945;51.718;5.324;2022-12-07T04:39:27;8.20;;;1.50;;
57055;SDS011;42945;51.718;5.324;2022-12-07T04:41:53;8.38;;;1.50;;
57055;SDS011;42945;51.718;5.324;2022-12-07T04:44:19;7.45;;;1.50;;
57055;SDS011;42945;51.718;5.324;2022-12-07T04:46:46;8.38;;;1.42;;
57055;SDS011;42945;51.718;5.324;2022-12-07T04:49:12;10.40;;;1.70;;
57055;SDS011;42945;51.718;5.324;2022-12-07T04:51:38;7.88;;;1.35;;
57055;SDS011;42945;51.718;5.324;2022-12-07T04:54:04;11.02;;;1.75;;
57055;SDS011;42945;51.718;5.324;2022-12-07T04:56:29;9.73;;;1.33;;
57055;SDS011;42945;51.718;5.324;2022-12-07T04:58:55;8.00;;;1.50;;
57055;SDS011;42945;51.718;5.324;2022-12-07T05:01:21;6.60;;;1.27;;
57055;SDS011;42945;51.718;5.324;2022-12-07T05:03:47;5.30;;;1.40;;
57055;SDS011;42945;51.718;5.324;2022-12-07T05:06:13;8.32;;;1.33;;
57055;SDS011;42945;51.718;5.324;2022-12-07T05:08:39;8.77;;;1.17;;
57055;SDS011;42945;51.718;5.324;2022-12-07T05:11:05;6.50;;;1.40;;
57055;SDS011;42945;51.718;5.324;2022-12-07T05:13:31;7.43;;;1.60;;
57055;SDS011;42945;51.718;5.324;2022-12-07T05:15:57;8.02;;;1.08;;
57055;SDS011;42945;51.718;5.324;2022-12-07T05:18:23;8.68;;;1.15;;
57055;SDS011;42945;51.718;5.324;2022-12-07T05:20:48;6.47;;;1.20;;
57055;SDS011;42945;51.718;5.324;2022-12-07T05:23:14;8.23;;;1.67;;
57055;SDS011;42945;51.718;5.324;2022-12-07T05:25:39;6.40;;;1.40;;
57055;SDS011;42945;51.718;5.324;2022-12-07T05:28:05;4.70;;;1.40;;
57055;SDS011;42945;51.718;5.324;2022-12-07T05:30:31;9.18;;;1.48;;
57055;SDS011;42945;51.718;5.324;2022-12-07T05:32:57;10.45;;;1.67;;
57055;SDS011;42945;51.718;5.324;2022-12-07T05:35:22;8.05;;;1.35;;
57055;SDS011;42945;51.718;5.324;2022-12-07T05:37:49;11.82;;;1.67;;
57055;SDS011;42945;51.718;5.324;2022-12-07T05:40:14;6.32;;;1.48;;
57055;SDS011;42945;51.718;5.324;2022-12-07T05:42:43;8.18;;;1.50;;
57055;SDS011;42945;51.718;5.324;2022-12-07T05:45:08;9.43;;;1.60;;
57055;SDS011;42945;51.718;5.324;2022-12-07T05:47:34;12.82;;;1.70;;
57055;SDS011;42945;51.718;5.324;2022-12-07T05:50:00;4.18;;;1.23;;
57055;SDS011;42945;51.718;5.324;2022-12-07T05:52:25;6.22;;;1.70;;
57055;SDS011;42945;51.718;5.324;2022-12-07T05:54:51;8.15;;;1.90;;
57055;SDS011;42945;51.718;5.324;2022-12-07T05:57:16;9.63;;;1.88;;
57055;SDS011;42945;51.718;5.324;2022-12-07T05:59:42;8.10;;;2.03;;
57055;SDS011;42945;51.718;5.324;2022-12-07T06:02:08;8.48;;;2.35;;
57055;SDS011;42945;51.718;5.324;2022-12-07T06:04:37;12.90;;;2.05;;
57055;SDS011;42945;51.718;5.324;2022-12-07T06:07:06;7.55;;;2.17;;
57055;SDS011;42945;51.718;5.324;2022-12-07T06:09:32;8.82;;;2.65;;
57055;SDS011;42945;51.718;5.324;2022-12-07T06:11:58;11.02;;;2.90;;
57055;SDS011;42945;51.718;5.324;2022-12-07T06:14:43;11.73;;;2.47;;
57055;SDS011;42945;51.718;5.324;2022-12-07T06:17:11;6.22;;;2.10;;
57055;SDS011;42945;51.718;5.324;2022-12-07T06:19:37;11.55;;;2.58;;
57055;SDS011;42945;51.718;5.324;2022-12-07T06:22:03;9.65;;;2.38;;
57055;SDS011;42945;51.718;5.324;2022-12-07T06:24:29;8.13;;;2.20;;
57055;SDS011;42945;51.718;5.324;2022-12-07T06:26:55;6.65;;;2.20;;
57055;SDS011;42945;51.718;5.324;2022-12-07T06:29:20;7.93;;;2.17;;
57055;SDS011;42945;51.718;5.324;2022-12-07T06:31:46;13.52;;;2.83;;
57055;SDS011;42945;51.718;5.324;2022-12-07T06:34:14;9.57;;;2.83;;
57055;SDS011;42945;51.718;5.324;2022-12-07T06:36:42;15.10;;;3.10;;
57055;SDS011;42945;51.718;5.324;2022-12-07T06:39:07;8.82;;;2.70;;
57055;SDS011;42945;51.718;5.324;2022-12-07T06:41:34;12.23;;;3.53;;
57055;SDS011;42945;51.718;5.324;2022-12-07T06:44:00;10.18;;;3.13;;
57055;SDS011;42945;51.718;5.324;2022-12-07T06:46:26;10.75;;;3.10;;
57055;SDS011;42945;51.718;5.324;2022-12-07T06:48:51;8.93;;;2.80;;
57055;SDS011;42945;51.718;5.324;2022-12-07T06:51:17;10.75;;;2.88;;
57055;SDS011;42945;51.718;5.324;2022-12-07T06:53:42;7.82;;;2.63;;
57055;SDS011;42945;51.718;5.324;2022-12-07T06:56:07;7.57;;;2.80;;
57055;SDS011;42945;51.718;5.324;2022-12-07T06:58:33;13.35;;;3.10;;
57055;SDS011;42945;51.718;5.324;2022-12-07T07:00:58;11.80;;;3.00;;
57055;SDS011;42945;51.718;5.324;2022-12-07T07:03:23;12.93;;;2.72;;
57055;SDS011;42945;51.718;5.324;2022-12-07T07:05:49;11.73;;;3.15;;
57055;SDS011;42945;51.718;5.324;2022-12-07T07:08:14;13.43;;;3.17;;
57055;SDS011;42945;51.718;5.324;2022-12-07T07:10:41;17.98;;;4.32;;
57055;SDS011;42945;51.718;5.324;2022-12-07T07:13:06;13.50;;;3.45;;
57055;SDS011;42945;51.718;5.324;2022-12-07T07:15:32;12.05;;;3.67;;
57055;SDS011;42945;51.718;5.324;2022-12-07T07:17:58;10.60;;;3.72;;
57055;SDS011;42945;51.718;5.324;2022-12-07T07:20:24;11.88;;;3.90;;
57055;SDS011;42945;51.718;5.324;2022-12-07T07:22:49;13.32;;;4.20;;
57055;SDS011;42945;51.718;5.324;2022-12-07T07:25:15;12.80;;;4.28;;
57055;SDS011;42945;51.718;5.324;2022-12-07T07:27:40;15.75;;;3.67;;
57055;SDS011;42945;51.718;5.324;2022-12-07T07:30:06;13.52;;;4.43;;
57055;SDS011;42945;51.718;5.324;2022-12-07T07:32:32;10.98;;;3.80;;
57055;SDS011;42945;51.718;5.324;2022-12-07T07:34:58;12.98;;;4.45;;
57055;SDS011;42945;51.718;5.324;2022-12-07T07:37:23;10.73;;;3.92;;
57055;SDS011;42945;51.718;5.324;2022-12-07T07:39:48;14.30;;;4.35;;
57055;SDS011;42945;51.718;5.324;2022-12-07T07:42:14;10.35;;;3.72;;
57055;SDS011;42945;51.718;5.324;2022-12-07T07:44:40;16.63;;;4.72;;
57055;SDS011;42945;51.718;5.324;2022-12-07T07:47:09;13.65;;;4.43;;
57055;SDS011;42945;51.718;5.324;2022-12-07T07:49:34;15.82;;;4.35;;
57055;SDS011;42945;51.718;5.324;2022-12-07T07:51:59;16.20;;;4.90;;
57055;SDS011;42945;51.718;5.324;2022-12-07T07:54:25;20.73;;;4.60;;
57055;SDS011;42945;51.718;5.324;2022-12-07T07:56:50;10.85;;;4.20;;
57055;SDS011;42945;51.718;5.324;2022-12-07T07:59:16;18.40;;;3.85;;
57055;SDS011;42945;51.718;5.324;2022-12-07T08:01:42;9.77;;;3.95;;
57055;SDS011;42945;51.718;5.324;2022-12-07T08:04:07;13.32;;;4.25;;
57055;SDS011;42945;51.718;5.324;2022-12-07T08:06:33;11.95;;;4.40;;
57055;SDS011;42945;51.718;5.324;2022-12-07T08:08:58;12.48;;;4.00;;
57055;SDS011;42945;51.718;5.324;2022-12-07T08:11:24;13.15;;;4.13;;
57055;SDS011;42945;51.718;5.324;2022-12-07T08:13:49;16.42;;;4.32;;
57055;SDS011;42945;51.718;5.324;2022-12-07T08:16:15;15.07;;;3.65;;
57055;SDS011;42945;51.718;5.324;2022-12-07T08:18:41;12.48;;;3.78;;
57055;SDS011;42945;51.718;5.324;2022-12-07T08:21:09;9.80;;;3.60;;
57055;SDS011;42945;51.718;5.324;2022-12-07T08:23:37;15.23;;;4.05;;
57055;SDS011;42945;51.718;5.324;2022-12-07T08:26:04;11.15;;;3.72;;
57055;SDS011;42945;51.718;5.324;2022-12-07T08:28:32;14.70;;;3.58;;
57055;SDS011;42945;51.718;5.324;2022-12-07T08:31:05;12.00;;;3.38;;
57055;SDS011;42945;51.718;5.324;2022-12-07T08:33:32;12.02;;;2.75;;
57055;SDS011;42945;51.718;5.324;2022-12-07T08:36:05;8.10;;;2.50;;
57055;SDS011;42945;51.718;5.324;2022-12-07T08:38:37;12.45;;;2.85;;
57055;SDS011;42945;51.718;5.324;2022-12-07T08:41:04;17.70;;;3.22;;
57055;SDS011;42945;51.718;5.324;2022-12-07T08:43:31;12.13;;;2.72;;
57055;SDS011;42945;51.718;5.324;2022-12-07T08:48:33;7.25;;;2.30;;
57055;SDS011;42945;51.718;5.324;2022-12-07T08:51:04;8.07;;;2.20;;
57055;SDS011;42945;51.718;5.324;2022-12-07T08:53:29;6.50;;;2.05;;
57055;SDS011;42945;51.718;5.324;2022-12-07T08:55:55;9.15;;;2.20;;
57055;SDS011;42945;51.718;5.324;2022-12-07T08:58:22;9.82;;;2.40;;
57055;SDS011;42945;51.718;5.324;2022-12-07T09:00:48;9.98;;;2.20;;
57055;SDS011;42945;51.718;5.324;2022-12-07T09:03:13;13.00;;;2.60;;
57055;SDS011;42945;51.718;5.324;2022-12-07T09:05:38;7.10;;;1.67;;
57055;SDS011;42945;51.718;5.324;2022-12-07T09:08:04;8.10;;;2.08;;
57055;SDS011;42945;51.718;5.324;2022-12-07T09:10:31;10.00;;;1.77;;
57055;SDS011;42945;51.718;5.324;2022-12-07T09:12:56;10.02;;;2.20;;
57055;SDS011;42945;51.718;5.324;2022-12-07T09:15:25;6.88;;;1.83;;
57055;SDS011;42945;51.718;5.324;2022-12-07T09:17:54;7.03;;;1.80;;
57055;SDS011;42945;51.718;5.324;2022-12-07T09:20:19;10.20;;;2.13;;
57055;SDS011;42945;51.718;5.324;2022-12-07T09:22:45;16.13;;;2.25;;
57055;SDS011;42945;51.718;5.324;2022-12-07T09:25:10;6.00;;;2.80;;
57055;SDS011;42945;51.718;5.324;2022-12-07T09:27:36;13.88;;;3.35;;
57055;SDS011;42945;51.718;5.324;2022-12-07T09:30:02;14.57;;;2.95;;
57055;SDS011;42945;51.718;5.324;2022-12-07T09:32:28;15.35;;;3.80;;
57055;SDS011;42945;51.718;5.324;2022-12-07T09:34:54;11.20;;;3.10;;
57055;SDS011;42945;51.718;5.324;2022-12-07T09:37:19;9.15;;;3.30;;
57055;SDS011;42945;51.718;5.324;2022-12-07T09:39:44;11.95;;;3.50;;
57055;SDS011;42945;51.718;5.324;2022-12-07T09:42:10;11.75;;;3.85;;
57055;SDS011;42945;51.718;5.324;2022-12-07T09:44:51;11.38;;;3.67;;
57055;SDS011;42945;51.718;5.324;2022-12-07T09:47:16;9.73;;;3.35;;
57055;SDS011;42945;51.718;5.324;2022-12-07T09:49:41;9.70;;;4.07;;
57055;SDS011;42945;51.718;5.324;2022-12-07T09:54:33;12.27;;;3.65;;
57055;SDS011;42945;51.718;5.324;2022-12-07T09:59:55;9.00;;;3.75;;
57055;SDS011;42945;51.718;5.324;2022-12-07T10:02:28;13.55;;;3.75;;
57055;SDS011;42945;51.718;5.324;2022-12-07T10:05:13;13.60;;;4.43;;
57055;SDS011;42945;51.718;5.324;2022-12-07T10:07:40;10.32;;;3.97;;
57055;SDS011;42945;51.718;5.324;2022-12-07T10:10:09;12.15;;;3.53;;
57055;SDS011;42945;51.718;5.324;2022-12-07T10:13:13;9.38;;;3.22;;
57055;SDS011;42945;51.718;5.324;2022-12-07T10:18:40;9.55;;;2.47;;
57055;SDS011;42945;51.718;5.324;2022-12-07T10:21:11;4.60;;;2.10;;
57055;SDS011;42945;51.718;5.324;2022-12-07T10:24:32;8.52;;;2.40;;
57055;SDS011;42945;51.718;5.324;2022-12-07T10:31:36;8.38;;;3.10;;
57055;SDS011;42945;51.718;5.324;2022-12-07T10:34:12;8.02;;;3.13;;
57055;SDS011;42945;51.718;5.324;2022-12-07T10:36:46;11.53;;;3.53;;
57055;SDS011;42945;51.718;5.324;2022-12-07T10:39:16;9.07;;;3.25;;
57055;SDS011;42945;51.718;5.324;2022-12-07T10:44:22;5.47;;;2.47;;
57055;SDS011;42945;51.718;5.324;2022-12-07T10:49:49;6.32;;;2.22;;
57055;SDS011;42945;51.718;5.324;2022-12-07T10:57:47;8.27;;;1.88;;
57055;SDS011;42945;51.718;5.324;2022-12-07T11:00:24;7.20;;;1.90;;
57055;SDS011;42945;51.718;5.324;2022-12-07T11:02:58;6.45;;;1.25;;
57055;SDS011;42945;51.718;5.324;2022-12-07T11:11:38;8.40;;;1.92;;
57055;SDS011;42945;51.718;5.324;2022-12-07T11:14:22;7.28;;;1.42;;
57055;SDS011;42945;51.718;5.324;2022-12-07T11:17:11;10.00;;;1.92;;
57055;SDS011;42945;51.718;5.324;2022-12-07T11:19:46;8.60;;;1.73;;
57055;SDS011;42945;51.718;5.324;2022-12-07T11:41:43;10.63;;;2.20;;
57055;SDS011;42945;51.718;5.324;2022-12-07T11:52:55;8.45;;;2.63;;
57055;SDS011;42945;51.718;5.324;2022-12-07T11:57:57;7.97;;;2.03;;
57055;SDS011;42945;51.718;5.324;2022-12-07T12:00:28;10.50;;;1.95;;
57055;SDS011;42945;51.718;5.324;2022-12-07T12:05:24;7.13;;;1.55;;
57055;SDS011;42945;51.718;5.324;2022-12-07T12:10:36;7.30;;;1.92;;
57055;SDS011;42945;51.718;5.324;2022-12-07T12:19:14;7.93;;;1.30;;
57055;SDS011;42945;51.718;5.324;2022-12-07T12:21:43;4.97;;;1.35;;
57055;SDS011;42945;51.718;5.324;2022-12-07T12:24:14;6.80;;;1.10;;
57055;SDS011;42945;51.718;5.324;2022-12-07T12:26:50;4.03;;;1.00;;
57055;SDS011;42945;51.718;5.324;2022-12-07T12:29:31;4.63;;;0.90;;
57055;SDS011;42945;51.718;5.324;2022-12-07T12:34:57;4.80;;;1.15;;
57055;SDS011;42945;51.718;5.324;2022-12-07T12:42:49;8.15;;;0.90;;
57055;SDS011;42945;51.718;5.324;2022-12-07T12:55:27;6.75;;;1.00;;
57055;SDS011;42945;51.718;5.324;2022-12-07T13:00:42;3.30;;;0.80;;
57055;SDS011;42945;51.718;5.324;2022-12-07T13:03:20;6.20;;;0.88;;
57055;SDS011;42945;51.718;5.324;2022-12-07T13:06:06;3.63;;;0.70;;
57055;SDS011;42945;51.718;5.324;2022-12-07T13:08:58;3.75;;;0.65;;
57055;SDS011;42945;51.718;5.324;2022-12-07T13:11:28;4.47;;;0.68;;
57055;SDS011;42945;51.718;5.324;2022-12-07T13:17:00;5.90;;;0.90;;
57055;SDS011;42945;51.718;5.324;2022-12-07T13:22:28;5.13;;;0.65;;
57055;SDS011;42945;51.718;5.324;2022-12-07T13:27:59;9.35;;;0.77;;
57055;SDS011;42945;51.718;5.324;2022-12-07T13:30:33;2.65;;;0.60;;
57055;SDS011;42945;51.718;5.324;2022-12-07T13:33:18;8.25;;;1.00;;
57055;SDS011;42945;51.718;5.324;2022-12-07T13:35:47;4.85;;;1.15;;
57055;SDS011;42945;51.718;5.324;2022-12-07T13:38:34;7.32;;;1.00;;
57055;SDS011;42945;51.718;5.324;2022-12-07T13:41:16;8.90;;;1.35;;
57055;SDS011;42945;51.718;5.324;2022-12-07T13:43:54;9.98;;;1.55;;
57055;SDS011;42945;51.718;5.324;2022-12-07T13:46:26;9.95;;;1.40;;
57055;SDS011;42945;51.718;5.324;2022-12-07T13:49:15;8.52;;;1.20;;
57055;SDS011;42945;51.718;5.324;2022-12-07T13:51:42;7.70;;;1.50;;
57055;SDS011;42945;51.718;5.324;2022-12-07T13:54:09;4.30;;;1.23;;
57055;SDS011;42945;51.718;5.324;2022-12-07T13:56:36;6.80;;;1.13;;
57055;SDS011;42945;51.718;5.324;2022-12-07T13:59:05;5.15;;;1.20;;
57055;SDS011;42945;51.718;5.324;2022-12-07T14:01:37;5.22;;;1.10;;
57055;SDS011;42945;51.718;5.324;2022-12-07T14:04:18;5.63;;;0.70;;
57055;SDS011;42945;51.718;5.324;2022-12-07T14:06:58;3.55;;;0.35;;
57055;SDS011;42945;51.718;5.324;2022-12-07T14:09:25;1.77;;;0.55;;
57055;SDS011;42945;51.718;5.324;2022-12-07T14:11:53;3.97;;;0.38;;
57055;SDS011;42945;51.718;5.324;2022-12-07T14:14:21;6.50;;;0.80;;
57055;SDS011;42945;51.718;5.324;2022-12-07T14:16:55;3.83;;;0.68;;
57055;SDS011;42945;51.718;5.324;2022-12-07T14:19:44;3.25;;;0.50;;
57055;SDS011;42945;51.718;5.324;2022-12-07T14:22:54;5.25;;;2.25;;
57055;SDS011;42945;51.718;5.324;2022-12-07T14:25:01;4.70;;;0.85;;
57055;SDS011;42945;51.718;5.324;2022-12-07T14:27:39;5.15;;;0.70;;
57055;SDS011;42945;51.718;5.324;2022-12-07T14:30:15;4.20;;;0.85;;
57055;SDS011;42945;51.718;5.324;2022-12-07T14:32:42;5.65;;;1.25;;
57055;SDS011;42945;51.718;5.324;2022-12-07T14:35:13;4.90;;;1.67;;
57055;SDS011;42945;51.718;5.324;2022-12-07T14:37:41;7.60;;;1.38;;
57055;SDS011;42945;51.718;5.324;2022-12-07T14:40:11;3.70;;;0.47;;
57055;SDS011;42945;51.718;5.324;2022-12-07T14:42:38;2.42;;;0.50;;
57055;SDS011;42945;51.718;5.324;2022-12-07T14:45:26;1.00;;;0.28;;
57055;SDS011;42945;51.718;5.324;2022-12-07T14:47:51;0.85;;;0.47;;
57055;SDS011;42945;51.718;5.324;2022-12-07T14:50:18;1.92;;;0.38;;
57055;SDS011;42945;51.718;5.324;2022-12-07T14:52:50;3.15;;;0.52;;
57055;SDS011;42945;51.718;5.324;2022-12-07T14:55:26;2.42;;;0.40;;
57055;SDS011;42945;51.718;5.324;2022-12-07T14:57:54;4.80;;;0.80;;
57055;SDS011;42945;51.718;5.324;2022-12-07T15:00:20;0.95;;;0.40;;
57055;SDS011;42945;51.718;5.324;2022-12-07T15:02:47;1.70;;;0.40;;
57055;SDS011;42945;51.718;5.324;2022-12-07T15:05:14;3.08;;;0.35;;
57055;SDS011;42945;51.718;5.324;2022-12-07T15:07:42;2.08;;;0.40;;
57055;SDS011;42945;51.718;5.324;2022-12-07T15:13:03;4.00;;;0.60;;
57055;SDS011;42945;51.718;5.324;2022-12-07T15:15:48;5.22;;;0.60;;
57055;SDS011;42945;51.718;5.324;2022-12-07T15:18:14;4.53;;;0.50;;
57055;SDS011;42945;51.718;5.324;2022-12-07T15:20:40;3.28;;;0.60;;
57055;SDS011;42945;51.718;5.324;2022-12-07T15:23:06;2.38;;;0.60;;
57055;SDS011;42945;51.718;5.324;2022-12-07T15:25:32;2.90;;;0.55;;
57055;SDS011;42945;51.718;5.324;2022-12-07T15:27:57;1.30;;;0.50;;
57055;SDS011;42945;51.718;5.324;2022-12-07T15:30:23;2.33;;;0.80;;
57055;SDS011;42945;51.718;5.324;2022-12-07T15:32:51;3.05;;;0.70;;
57055;SDS011;42945;51.718;5.324;2022-12-07T15:35:17;3.50;;;0.60;;
57055;SDS011;42945;51.718;5.324;2022-12-07T15:37:44;3.55;;;0.77;;
57055;SDS011;42945;51.718;5.324;2022-12-07T15:40:10;4.28;;;1.48;;
57055;SDS011;42945;51.718;5.324;2022-12-07T15:42:36;4.05;;;0.82;;
57055;SDS011;42945;51.718;5.324;2022-12-07T15:45:02;4.45;;;1.23;;
57055;SDS011;42945;51.718;5.324;2022-12-07T15:47:39;2.92;;;1.08;;
57055;SDS011;42945;51.718;5.324;2022-12-07T15:50:10;5.95;;;1.30;;
57055;SDS011;42945;51.718;5.324;2022-12-07T15:52:37;4.85;;;1.65;;
57055;SDS011;42945;51.718;5.324;2022-12-07T15:55:03;5.82;;;1.75;;
57055;SDS011;42945;51.718;5.324;2022-12-07T15:57:29;3.33;;;1.55;;
57055;SDS011;42945;51.718;5.324;2022-12-07T15:59:55;5.57;;;1.80;;
57055;SDS011;42945;51.718;5.324;2022-12-07T16:02:21;7.82;;;1.73;;
57055;SDS011;42945;51.718;5.324;2022-12-07T16:04:47;6.97;;;2.30;;
57055;SDS011;42945;51.718;5.324;2022-12-07T16:07:13;8.02;;;2.40;;
57055;SDS011;42945;51.718;5.324;2022-12-07T16:09:40;10.27;;;3.17;;
57055;SDS011;42945;51.718;5.324;2022-12-07T16:12:06;6.72;;;3.03;;
57055;SDS011;42945;51.718;5.324;2022-12-07T16:14:32;7.07;;;2.95;;
57055;SDS011;42945;51.718;5.324;2022-12-07T16:16:58;10.80;;;3.08;;
57055;SDS011;42945;51.718;5.324;2022-12-07T16:19:24;9.35;;;3.38;;
57055;SDS011;42945;51.718;5.324;2022-12-07T16:21:49;6.43;;;2.92;;
57055;SDS011;42945;51.718;5.324;2022-12-07T16:24:15;6.45;;;3.22;;
57055;SDS011;42945;51.718;5.324;2022-12-07T16:26:41;6.38;;;3.17;;
57055;SDS011;42945;51.718;5.324;2022-12-07T16:29:07;7.45;;;2.72;;
57055;SDS011;42945;51.718;5.324;2022-12-07T16:31:38;7.15;;;3.35;;
57055;SDS011;42945;51.718;5.324;2022-12-07T16:34:03;8.50;;;3.20;;
57055;SDS011;42945;51.718;5.324;2022-12-07T16:36:28;10.13;;;3.42;;
57055;SDS011;42945;51.718;5.324;2022-12-07T16:38:54;13.75;;;3.55;;
57055;SDS011;42945;51.718;5.324;2022-12-07T16:41:20;8.38;;;3.55;;
57055;SDS011;42945;51.718;5.324;2022-12-07T16:43:46;8.55;;;4.13;;
57055;SDS011;42945;51.718;5.324;2022-12-07T16:46:12;9.38;;;3.72;;
57055;SDS011;42945;51.718;5.324;2022-12-07T16:48:38;14.18;;;4.07;;
57055;SDS011;42945;51.718;5.324;2022-12-07T16:51:08;11.68;;;5.00;;
57055;SDS011;42945;51.718;5.324;2022-12-07T16:53:36;9.38;;;4.35;;
57055;SDS011;42945;51.718;5.324;2022-12-07T16:56:03;8.60;;;4.63;;
57055;SDS011;42945;51.718;5.324;2022-12-07T16:58:30;11.75;;;4.35;;
57055;SDS011;42945;51.718;5.324;2022-12-07T17:00:55;11.88;;;5.03;;
57055;SDS011;42945;51.718;5.324;2022-12-07T17:03:21;12.23;;;4.53;;
57055;SDS011;42945;51.718;5.324;2022-12-07T17:05:47;12.25;;;4.32;;
57055;SDS011;42945;51.718;5.324;2022-12-07T17:08:14;12.02;;;4.80;;